Time;durP1;ratioP1;P1;durP2;ratioP2;P2;SDS_P1;SDS_P2;PMS_P1;PMS_P2;Temp;Humidity;BMP_temperature;BMP_pressure;BME280_temperature;BME280_humidity;BME280_pressure;Samples;Min_cycle;Max_cycle;Signal;HPM_P1;HPM_P2
2021/11/01 00:02:16;;;;;;;37.17;17.95;;;;;;;4.80;82.84;99642.03;5053998;28;20043;-62
2021/11/01 00:04:44;;;;;;;34.88;17.60;;;;;;;4.78;83.01;99644.84;5052468;28;20093;-61
2021/11/01 00:07:11;;;;;;;34.38;17.45;;;;;;;4.76;82.99;99646.84;5053884;28;20055;-61
2021/11/01 00:09:37;;;;;;;36.40;16.95;;;;;;;4.74;83.27;99633.91;5053348;28;20144;-61
2021/11/01 00:12:04;;;;;;;37.90;18.70;;;;;;;4.73;83.19;99642.78;5052249;28;20032;-61
2021/11/01 00:14:30;;;;;;;32.80;17.88;;;;;;;4.73;83.43;99640.16;5053774;28;20068;-61
2021/11/01 00:16:57;;;;;;;36.13;17.52;;;;;;;4.73;83.62;99647.22;5053691;28;20079;-61
2021/11/01 00:19:24;;;;;;;32.30;17.17;;;;;;;4.70;83.46;99652.88;5053307;28;20057;-62
2021/11/01 00:21:50;;;;;;;35.60;17.08;;;;;;;4.66;83.54;99657.69;5053418;28;20045;-62
2021/11/01 00:24:16;;;;;;;37.25;17.50;;;;;;;4.67;83.72;99655.88;5053706;28;20066;-61
2021/11/01 00:26:42;;;;;;;35.53;18.33;;;;;;;4.64;83.72;99656.25;5053583;28;20041;-62
2021/11/01 00:29:09;;;;;;;33.30;17.50;;;;;;;4.65;83.65;99652.66;5051803;28;20454;-60
2021/11/01 00:31:35;;;;;;;32.63;16.85;;;;;;;4.64;83.39;99645.75;5053245;28;20514;-62
2021/11/01 00:34:01;;;;;;;38.95;18.23;;;;;;;4.63;83.92;99646.78;5053211;28;20052;-61
2021/11/01 00:36:27;;;;;;;29.63;16.75;;;;;;;4.61;83.38;99652.19;5051930;28;20037;-64
2021/11/01 00:38:53;;;;;;;31.00;16.98;;;;;;;4.62;83.55;99653.84;5053257;28;20497;-61
2021/11/01 00:41:19;;;;;;;33.80;17.80;;;;;;;4.60;83.56;99644.53;5052068;28;20088;-61
2021/11/01 00:43:45;;;;;;;36.90;17.30;;;;;;;4.58;83.50;99649.16;5035123;28;20609;-61
2021/11/01 00:46:11;;;;;;;35.97;18.67;;;;;;;4.61;83.39;99648.78;5053149;28;20072;-62
2021/11/01 00:48:37;;;;;;;29.83;15.88;;;;;;;4.59;83.33;99648.97;5051951;28;20482;-61
2021/11/01 00:51:03;;;;;;;38.65;19.02;;;;;;;4.55;84.35;99650.34;5052801;28;20041;-62
2021/11/01 00:53:34;;;;;;;36.08;17.75;;;;;;;4.56;83.60;99646.75;5053094;28;20546;-62
2021/11/01 00:56:01;;;;;;;35.92;17.92;;;;;;;4.53;83.99;99631.38;5051776;28;20079;-61
2021/11/01 00:58:27;;;;;;;29.27;16.42;;;;;;;4.57;83.40;99647.53;5053078;28;20045;-61
2021/11/01 01:00:54;;;;;;;37.83;18.17;;;;;;;4.54;83.98;99646.13;5052842;28;20498;-62
2021/11/01 01:03:21;;;;;;;33.53;17.38;;;;;;;4.54;84.14;99643.47;5051412;28;20136;-62
2021/11/01 01:05:48;;;;;;;31.45;17.45;;;;;;;4.53;83.47;99645.31;5051607;28;20044;-60
2021/11/01 01:08:17;;;;;;;38.63;18.42;;;;;;;4.50;84.18;99643.06;5051568;28;20410;-60
2021/11/01 01:10:44;;;;;;;36.15;17.23;;;;;;;4.52;83.65;99650.72;5052689;28;20045;-62
2021/11/01 01:13:11;;;;;;;36.53;18.17;;;;;;;4.49;84.16;99651.13;5052347;28;20041;-60
2021/11/01 01:15:45;;;;;;;31.75;16.38;;;;;;;4.46;83.86;99651.50;5051189;28;20120;-61
2021/11/01 01:23:49;;;;;;;36.33;18.00;;;;;;;4.44;84.35;99653.50;5052582;28;20064;-61
2021/11/01 01:26:15;;;;;;;37.38;17.33;;;;;;;4.40;84.55;99649.63;5052096;28;20083;-61
2021/11/01 01:28:43;;;;;;;36.95;17.88;;;;;;;4.41;84.11;99659.13;5050928;28;20047;-60
2021/11/01 01:31:10;;;;;;;37.17;18.52;;;;;;;4.40;83.96;99644.38;5034219;28;20076;-61
2021/11/01 01:33:37;;;;;;;35.05;18.60;;;;;;;4.40;83.75;99645.19;5050859;28;20041;-62
2021/11/01 01:36:04;;;;;;;36.33;19.25;;;;;;;4.40;83.84;99644.38;5052151;28;20056;-61
2021/11/01 01:38:30;;;;;;;35.90;18.52;;;;;;;4.39;84.48;99650.66;5052274;28;20049;-60
2021/11/01 01:40:56;;;;;;;40.47;19.13;;;;;;;4.37;83.90;99644.78;5051996;28;20495;-61
2021/11/01 01:43:23;;;;;;;36.88;19.85;;;;;;;4.37;84.34;99644.78;5051817;28;20076;-60
2021/11/01 01:45:49;;;;;;;35.75;17.50;;;;;;;4.33;84.21;99647.78;5052089;28;20037;-62
2021/11/01 01:48:15;;;;;;;33.78;18.60;;;;;;;4.31;83.82;99643.72;5051824;28;20639;-63
2021/11/01 01:50:44;;;;;;;34.88;18.48;;;;;;;4.32;84.35;99643.53;5051776;28;20525;-61
2021/11/01 01:53:10;;;;;;;37.55;18.38;;;;;;;4.28;84.86;99642.28;5051617;28;20191;-61
2021/11/01 01:55:35;;;;;;;36.72;18.10;;;;;;;4.29;84.11;99643.09;5050521;28;20191;-62
2021/11/01 01:58:02;;;;;;;36.75;18.85;;;;;;;4.28;84.82;99641.47;5050661;28;20356;-62
2021/11/01 02:02:55;;;;;;;37.05;18.02;;;;;;;4.23;84.38;99643.84;5051781;28;20033;-63
2021/11/01 02:05:21;;;;;;;36.35;18.75;;;;;;;4.22;84.77;99642.22;5050503;28;20140;-61
2021/11/01 02:07:59;;;;;;;37.72;18.42;;;;;;;4.22;84.76;99644.84;5050262;28;20455;-62
2021/11/01 02:10:29;;;;;;;36.33;18.95;;;;;;;4.19;84.47;99632.94;5051450;28;20049;-61
2021/11/01 02:13:05;;;;;;;40.25;19.90;;;;;;;4.19;84.75;99637.38;5051620;28;20043;-63
2021/11/01 02:15:54;;;;;;;38.88;19.15;;;;;;;4.17;85.07;99644.59;5050100;28;20510;-60
2021/11/01 02:18:21;;;;;;;35.67;18.88;;;;;;;4.16;84.79;99641.19;5050215;28;20041;-62
2021/11/01 02:21:04;;;;;;;34.83;19.30;;;;;;;4.13;84.75;99646.81;5051195;28;20485;-60
2021/11/01 02:23:42;;;;;;;43.25;19.95;;;;;;;4.11;85.21;99638.31;5051616;28;20453;-62
2021/11/01 02:26:11;;;;;;;37.72;18.95;;;;;;;4.08;84.37;99639.50;5050293;28;20037;-61
2021/11/01 02:28:39;;;;;;;39.90;20.40;;;;;;;4.07;85.41;99637.06;5051579;28;20445;-62
2021/11/01 02:31:06;;;;;;;34.35;19.38;;;;;;;4.07;85.20;99643.13;5049668;28;20052;-61
2021/11/01 02:33:33;;;;;;;37.92;19.33;;;;;;;4.01;84.42;99637.81;5051339;28;20102;-61
2021/11/01 02:35:59;;;;;;;39.97;19.80;;;;;;;4.02;85.28;99636.81;5050295;28;20186;-61
2021/11/01 02:38:29;;;;;;;43.47;20.30;;;;;;;4.03;84.97;99639.25;5051232;28;20075;-61
2021/11/01 02:40:54;;;;;;;43.00;20.80;;;;;;;4.03;85.36;99630.56;5049879;28;20502;-62
2021/11/01 02:43:21;;;;;;;40.00;19.90;;;;;;;4.02;85.03;99636.81;5033277;28;20055;-61
2021/11/01 02:45:47;;;;;;;46.15;21.95;;;;;;;4.04;85.19;99633.00;5051341;28;20049;-61
2021/11/01 02:48:14;;;;;;;42.22;20.23;;;;;;;4.01;85.52;99641.25;5051103;28;20456;-62
2021/11/01 02:50:40;;;;;;;40.03;20.77;;;;;;;3.99;84.79;99635.38;5051073;28;20502;-62
2021/11/01 02:53:06;;;;;;;41.53;19.88;;;;;;;3.97;85.03;99629.53;5049759;28;20060;-62
2021/11/01 02:55:34;;;;;;;40.55;19.88;;;;;;;3.98;85.01;99625.91;5051267;28;20041;-62
2021/11/01 02:58:00;;;;;;;44.20;21.25;;;;;;;3.97;85.15;99631.31;5051166;28;20084;-63
2021/11/01 03:00:28;;;;;;;42.50;20.65;;;;;;;3.96;85.06;99629.69;5050828;28;20043;-63
2021/11/01 03:02:55;;;;;;;41.47;20.58;;;;;;;3.93;85.46;99622.22;5051149;28;20099;-62
2021/11/01 03:05:23;;;;;;;47.33;20.83;;;;;;;3.91;85.36;99624.19;5050858;28;20045;-62
2021/11/01 03:07:51;;;;;;;39.10;20.13;;;;;;;3.93;84.87;99627.47;5051115;28;20083;-62
2021/11/01 03:10:17;;;;;;;40.00;20.23;;;;;;;3.93;85.50;99625.63;5050451;28;20045;-61
2021/11/01 03:12:44;;;;;;;44.38;20.73;;;;;;;3.92;85.01;99613.53;5049493;28;20045;-61
2021/11/01 03:15:16;;;;;;;41.88;20.52;;;;;;;3.91;85.35;99613.72;5033193;28;20056;-62
2021/11/01 03:17:45;;;;;;;39.80;20.45;;;;;;;3.92;84.88;99629.28;5050809;28;20391;-62
2021/11/01 03:20:16;;;;;;;41.28;19.55;;;;;;;3.90;85.47;99631.25;5050543;28;20103;-61
2021/11/01 03:22:47;;;;;;;43.88;21.67;;;;;;;3.90;85.75;99630.44;5049873;28;20052;-60
2021/11/01 03:25:18;;;;;;;48.03;20.70;;;;;;;3.87;85.83;99621.16;5049673;28;20063;-62
2021/11/01 03:27:49;;;;;;;38.92;20.60;;;;;;;3.89;85.25;99632.28;5016983;28;20429;-62
2021/11/01 03:30:15;;;;;;;42.92;20.75;;;;;;;3.82;85.25;99623.50;5049580;28;20068;-62
2021/11/01 03:32:43;;;;;;;48.75;22.95;;;;;;;3.89;85.01;99634.09;5049630;28;20048;-62
2021/11/01 03:35:09;;;;;;;44.25;22.08;;;;;;;3.90;85.39;99633.06;5032787;28;20048;-62
2021/11/01 03:37:36;;;;;;;46.20;23.00;;;;;;;3.92;84.86;99631.09;5049609;28;20060;-62
2021/11/01 03:40:03;;;;;;;40.78;20.70;;;;;;;3.95;85.00;99628.91;5049377;28;20083;-62
2021/11/01 03:42:29;;;;;;;41.50;20.63;;;;;;;3.99;84.56;99626.69;5050527;28;20041;-62
2021/11/01 03:45:08;;;;;;;40.67;21.30;;;;;;;4.05;84.58;99628.56;5053626;28;20098;-62
2021/11/01 03:47:38;;;;;;;40.20;20.83;;;;;;;4.14;84.46;99629.25;5037974;28;20048;-62
2021/11/01 03:50:16;;;;;;;38.38;19.92;;;;;;;4.21;83.89;99630.94;5054461;28;20083;-63
2021/11/01 03:52:44;;;;;;;41.75;20.15;;;;;;;4.29;83.21;99629.97;5036148;28;20037;-62
2021/11/01 03:55:10;;;;;;;38.80;19.92;;;;;;;4.35;83.66;99631.81;5054292;28;20049;-61
2021/11/01 03:57:36;;;;;;;41.42;20.70;;;;;;;4.41;82.91;99622.38;5054120;28;20414;-63
2021/11/01 04:00:05;;;;;;;41.20;21.70;;;;;;;4.39;82.94;99635.72;5052515;28;20044;-64
2021/11/01 04:02:33;;;;;;;39.20;21.33;;;;;;;4.43;83.01;99625.63;5053498;28;20467;-61
2021/11/01 04:05:01;;;;;;;40.45;21.15;;;;;;;4.49;83.35;99635.38;5053585;28;20136;-62
2021/11/01 04:07:28;;;;;;;39.47;20.25;;;;;;;4.52;83.33;99624.47;5053800;28;20036;-63
2021/11/01 04:09:54;;;;;;;34.80;18.92;;;;;;;4.55;82.29;99624.09;5053998;28;20211;-61
2021/11/01 04:12:20;;;;;;;38.05;20.70;;;;;;;4.64;81.81;99630.81;5052650;28;20454;-62
2021/11/01 04:14:50;;;;;;;42.58;21.10;;;;;;;4.69;82.13;99644.19;5053705;28;20044;-61
2021/11/01 04:17:24;;;;;;;41.38;19.85;;;;;;;4.69;82.21;99643.38;5053230;28;20422;-62
2021/11/01 04:22:23;;;;;;;43.95;20.35;;;;;;;4.80;82.07;99642.84;5052454;28;20125;-62
2021/11/01 04:24:50;;;;;;;43.30;20.55;;;;;;;4.88;82.00;99642.69;5053676;28;20546;-62
2021/11/01 04:27:16;;;;;;;45.85;21.08;;;;;;;4.84;80.78;99644.06;5052121;28;20045;-61
2021/11/01 04:29:42;;;;;;;39.35;19.38;;;;;;;4.87;81.83;99641.06;5053653;28;20060;-62
2021/11/01 04:32:16;;;;;;;38.83;22.42;;;;;;;4.86;81.03;99639.44;5053181;28;20637;-62
2021/11/01 04:34:48;;;;;;;45.22;21.63;;;;;;;4.92;80.60;99643.91;5053634;28;20037;-62
2021/11/01 04:37:13;;;;;;;40.63;21.05;;;;;;;4.98;81.36;99645.75;5052228;28;20422;-62
2021/11/01 04:39:47;;;;;;;39.33;19.02;;;;;;;5.08;80.90;99634.88;5053497;28;20045;-62
2021/11/01 04:55:19;;;;;;;43.55;21.95;;;;;;;5.16;79.88;99642.63;5053004;28;20055;-61
2021/11/01 04:57:45;;;;;;;39.92;20.35;;;;;;;5.16;79.91;99647.88;5052758;28;20445;-62
2021/11/01 05:00:12;;;;;;;42.55;20.55;;;;;;;5.12;79.43;99651.09;5034860;28;20052;-62
2021/11/01 05:02:43;;;;;;;42.30;21.17;;;;;;;5.21;80.09;99649.91;5052411;28;20041;-63
2021/11/01 05:05:09;;;;;;;41.53;20.58;;;;;;;5.17;79.55;99656.56;5052927;28;20055;-61
2021/11/01 05:07:35;;;;;;;41.75;20.73;;;;;;;5.24;79.70;99667.94;5052702;28;20044;-62
2021/11/01 05:10:27;;;;;;;36.95;19.98;;;;;;;5.27;79.57;99659.66;5052684;28;20051;-64
2021/11/01 05:12:49;;;;;;;37.58;19.83;;;;;;;5.32;79.52;99667.75;5051927;28;20091;-61
2021/11/01 05:15:26;;;;;;;41.85;19.52;;;;;;;5.33;79.15;99661.50;5052642;28;20132;-61
2021/11/01 05:18:14;;;;;;;41.90;20.13;;;;;;;5.38;78.49;99666.16;5052629;28;20043;-62
2021/11/01 05:20:45;;;;;;;44.45;21.42;;;;;;;5.36;78.85;99666.34;5050955;28;20114;-62
2021/11/01 05:25:54;;;;;;;39.28;20.08;;;;;;;5.44;78.99;99668.81;5052483;28;20036;-66
2021/11/01 05:28:29;;;;;;;43.03;20.05;;;;;;;5.53;78.35;99672.09;5052003;28;20041;-62
2021/11/01 05:31:08;;;;;;;34.08;18.98;;;;;;;5.60;78.45;99677.38;5050579;28;20043;-62
2021/11/01 05:36:00;;;;;;;40.53;20.08;;;;;;;5.65;78.37;99675.75;5051968;28;20045;-62
2021/11/01 05:38:26;;;;;;;38.90;19.38;;;;;;;5.66;77.75;99677.38;5051679;28;20534;-61
2021/11/01 05:40:52;;;;;;;41.30;21.08;;;;;;;5.60;77.35;99672.09;5050641;28;20040;-61
2021/11/01 05:43:18;;;;;;;37.88;18.92;;;;;;;5.59;78.25;99673.09;5033780;28;20514;-64
2021/11/01 05:45:44;;;;;;;41.42;20.33;;;;;;;5.73;78.33;99680.00;5051842;28;20045;-62
2021/11/01 05:48:10;;;;;;;39.45;20.02;;;;;;;5.76;77.30;99682.25;5052288;28;20045;-64
2021/11/01 05:50:37;;;;;;;41.22;20.48;;;;;;;5.70;77.27;99685.66;5051474;28;20044;-62
2021/11/01 05:53:06;;;;;;;41.60;20.98;;;;;;;5.76;77.79;99691.97;5051870;28;20068;-62
2021/11/01 06:03:47;;;;;;;39.92;20.45;;;;;;;5.84;77.15;99691.78;5051654;28;20041;-62
2021/11/01 06:06:29;;;;;;;42.58;21.50;;;;;;;5.89;77.15;99689.38;5049615;28;20131;-62
2021/11/01 06:13:55;;;;;;;42.10;21.58;;;;;;;5.95;76.63;99700.97;5051450;28;20395;-64
2021/11/01 06:16:21;;;;;;;;;;;;;;;5.89;76.53;99707.78;5050666;28;20044;-64
2021/11/01 06:18:53;;;;;;;45.90;21.25;;;;;;;5.88;76.43;99707.00;5051542;28;19978;-61
2021/11/01 06:21:21;;;;;;;40.53;19.35;;;;;;;5.95;76.12;99707.03;5001079;28;20041;-64
2021/11/01 06:23:51;;;;;;;39.10;19.92;;;;;;;6.05;76.15;99710.06;5051513;28;20041;-61
2021/11/01 06:26:18;;;;;;;39.97;20.63;;;;;;;6.09;75.44;99716.56;5051245;28;20061;-64
2021/11/01 06:28:46;;;;;;;35.38;18.52;;;;;;;6.12;75.41;99704.84;5049971;28;20048;-64
2021/11/01 06:31:17;;;;;;;41.15;20.17;;;;;;;6.18;75.08;99706.66;5051121;28;20037;-60
2021/11/01 06:49:48;;;;;;;41.72;20.58;;;;;;;6.46;74.27;99713.56;5051162;28;20486;-61
2021/11/01 06:57:23;;;;;;;41.85;19.17;;;;;;;6.47;73.78;99704.63;5050923;28;20127;-63
2021/11/01 07:16:26;;;;;;;36.30;19.35;;;;;;;6.84;72.79;99708.47;5047928;28;20047;-62
2021/11/01 08:35:18;;;;;;;39.75;20.77;;;;;;;8.21;68.11;99722.34;5050965;28;20094;-62
2021/11/01 08:45:27;;;;;;;39.42;21.15;;;;;;;8.29;68.11;99724.69;5050015;28;20425;-63
2021/11/01 08:48:09;;;;;;;43.87;20.73;;;;;;;8.26;68.71;99724.31;5045988;28;20485;-63
2021/11/01 09:09:59;;;;;;;43.35;22.00;;;;;;;8.59;67.30;99716.22;5045936;28;20609;-62
2021/11/01 09:20:28;;;;;;;42.45;21.55;;;;;;;8.71;67.01;99718.94;5028934;28;20068;-62
2021/11/01 09:38:30;;;;;;;39.58;21.42;;;;;;;8.70;66.54;99707.53;5047439;28;20044;-61
2021/11/01 09:43:28;;;;;;;42.63;21.42;;;;;;;8.66;67.69;99701.09;5047880;28;20513;-62
2021/11/01 09:46:10;;;;;;;46.72;22.02;;;;;;;8.78;67.35;99707.28;5049010;28;20085;-60
2021/11/01 09:48:41;;;;;;;38.70;21.02;;;;;;;8.92;66.83;99699.22;5048710;28;20037;-64
2021/11/01 09:51:09;;;;;;;41.10;21.88;;;;;;;9.03;66.43;99706.41;5010443;28;20044;-61
2021/11/01 09:53:44;;;;;;;50.22;24.25;;;;;;;9.12;65.94;99706.94;5028498;28;20571;-61
2021/11/01 09:56:29;;;;;;;48.47;23.60;;;;;;;9.07;65.79;99705.78;5044580;28;20041;-63
2021/11/01 09:59:11;;;;;;;39.80;20.80;;;;;;;9.00;65.67;99701.56;5043999;28;20044;-64
2021/11/01 10:01:47;;;;;;;42.53;22.20;;;;;;;8.97;65.70;99694.06;5043568;28;20033;-62
2021/11/01 10:04:15;;;;;;;45.53;21.60;;;;;;;8.92;66.27;99697.41;5046078;28;20804;-62
2021/11/01 10:06:41;;;;;;;43.15;21.65;;;;;;;8.85;67.03;99694.81;5047475;28;20128;-63
2021/11/01 10:09:12;;;;;;;41.75;21.35;;;;;;;8.73;67.20;99691.25;5045120;28;20045;-63
2021/11/01 10:11:39;;;;;;;;;;;;;;;8.60;67.33;99686.91;5043988;28;20072;-63
2021/11/01 10:14:08;;;;;;;45.30;21.33;;;;;;;8.39;68.12;99689.94;5047229;28;19925;-65
2021/11/01 10:19:31;;;;;;;42.58;22.58;;;;;;;8.01;69.74;99685.50;5043503;28;20187;-62
2021/11/01 10:22:06;;;;;;;51.88;22.25;;;;;;;7.84;70.47;99679.91;5044473;28;20069;-63
2021/11/01 10:24:39;;;;;;;45.25;22.33;;;;;;;7.74;70.47;99682.22;5046815;28;20439;-65
2021/11/01 10:27:09;;;;;;;45.58;22.73;;;;;;;7.67;71.35;99684.88;5028847;28;20047;-65
2021/11/01 10:29:47;;;;;;;;;;;;;;;7.54;71.69;99676.22;5045707;28;20048;-62
2021/11/01 10:32:13;;;;;;;47.70;23.33;;;;;;;7.47;71.80;99679.72;5045057;28;20374;-62
2021/11/01 10:34:40;;;;;;;45.70;22.77;;;;;;;7.48;72.46;99668.13;5047247;28;20045;-62
2021/11/01 10:37:12;;;;;;;41.28;22.33;;;;;;;7.54;72.06;99669.13;5046413;28;20071;-61
2021/11/01 10:39:38;;;;;;;44.15;22.75;;;;;;;7.50;72.37;99667.94;5046640;28;20045;-60
2021/11/01 10:42:23;;;;;;;43.17;24.20;;;;;;;7.45;72.62;99668.56;5028282;28;20414;-63
2021/11/01 10:45:00;;;;;;;41.88;22.40;;;;;;;7.50;72.82;99667.94;5044438;28;20121;-61
2021/11/01 11:12:32;;;;;;;36.97;20.67;;;;;;;7.50;72.48;99654.75;5049334;28;20049;-63
2021/11/01 11:15:07;;;;;;;37.20;20.10;;;;;;;7.51;72.61;99656.34;5047470;28;20091;-64
2021/11/01 11:20:28;;;;;;;37.75;19.98;;;;;;;7.44;72.52;99645.84;5046543;28;20052;-62
2021/11/01 11:32:23;;;;;;;36.13;20.38;;;;;;;7.38;71.84;99653.75;5049328;28;20131;-60
2021/11/01 11:48:43;;;;;;;38.83;20.75;;;;;;;7.24;71.40;99639.84;5047090;28;20041;-62
2021/11/01 11:51:10;;;;;;;40.15;21.58;;;;;;;7.16;71.71;99638.25;5051103;28;20119;-62
2021/11/01 11:53:57;;;;;;;36.42;20.90;;;;;;;7.12;71.87;99628.31;5050527;28;20397;-62
2021/11/01 11:56:44;;;;;;;38.65;20.80;;;;;;;7.16;71.68;99632.16;5046602;28;20055;-65
2021/11/01 11:59:11;;;;;;;41.33;20.73;;;;;;;7.12;72.08;99626.50;5048411;28;20041;-61
2021/11/01 12:01:40;;;;;;;42.58;22.25;;;;;;;7.10;71.74;99636.44;5047808;28;20036;-61
2021/11/01 12:04:20;;;;;;;38.42;20.58;;;;;;;7.05;72.03;99628.34;5047498;28;20079;-60
2021/11/01 12:06:57;;;;;;;35.65;21.63;;;;;;;7.02;72.02;99620.84;5047405;28;20448;-59
2021/11/01 12:09:31;;;;;;;39.92;21.27;;;;;;;7.01;72.25;99637.69;5030693;28;20502;-60
2021/11/01 12:17:29;;;;;;;39.50;20.45;;;;;;;7.03;72.27;99633.84;5047337;28;20433;-60
2021/11/01 12:20:00;;;;;;;36.05;20.35;;;;;;;6.94;72.41;99635.09;5045832;28;20084;-60
2021/11/01 12:22:32;;;;;;;37.58;21.35;;;;;;;6.94;72.27;99637.72;5046046;28;20037;-61
2021/11/01 12:25:01;;;;;;;35.22;19.40;;;;;;;6.93;72.45;99630.81;5048332;28;20404;-63
2021/11/01 12:27:31;;;;;;;42.57;23.43;;;;;;;6.90;72.35;99625.16;5047101;28;20491;-61
2021/11/01 12:29:58;;;;;;;36.80;19.60;;;;;;;6.87;72.39;99626.38;5048414;28;20060;-60
2021/11/01 12:32:24;;;;;;;39.33;20.48;;;;;;;6.82;73.02;99631.44;5032119;28;20088;-61
2021/11/01 12:35:06;;;;;;;35.35;19.77;;;;;;;6.78;72.96;99625.78;5046835;28;20037;-61
2021/11/01 12:37:54;;;;;;;37.50;20.27;;;;;;;6.78;73.15;99624.97;5048062;28;20044;-62
2021/11/01 12:40:26;;;;;;;33.92;19.58;;;;;;;6.78;73.18;99624.97;5046609;28;20057;-61
2021/11/01 12:57:06;;;;;;;49.03;26.48;;;;;;;6.67;73.88;99618.50;5050136;28;20040;-61
2021/11/01 12:59:57;;;;;;;36.78;20.63;;;;;;;6.68;73.45;99614.88;5049569;28;20044;-61
2021/11/01 13:02:23;;;;;;;39.03;21.08;;;;;;;6.70;73.76;99619.94;5047624;28;20037;-62
2021/11/01 13:04:50;;;;;;;36.10;20.05;;;;;;;6.68;73.89;99619.34;5049616;28;20171;-64
2021/11/01 13:09:56;;;;;;;32.95;20.35;;;;;;;6.62;74.22;99617.50;5046535;28;20037;-64
2021/11/01 13:20:35;;;;;;;36.00;20.65;;;;;;;6.56;74.07;99612.06;5033007;28;20525;-62
2021/11/01 13:23:02;;;;;;;29.40;17.58;;;;;;;6.53;73.92;99617.75;5050665;28;20494;-62
2021/11/01 13:25:54;;;;;;;36.58;18.45;;;;;;;6.51;73.79;99603.97;5049091;28;20119;-62
2021/11/01 13:36:39;;;;;;;31.52;17.30;;;;;;;6.41;74.76;99635.16;5049491;28;20069;-62
2021/11/01 13:39:07;;;;;;;28.60;16.50;;;;;;;6.40;74.59;99630.91;5027702;28;20046;-63
2021/11/01 13:41:34;;;;;;;29.52;17.58;;;;;;;6.35;74.91;99628.91;5039616;28;20456;-61
2021/11/01 13:44:09;;;;;;;30.00;16.95;;;;;;;6.33;75.34;99630.94;5049855;28;20053;-61
2021/11/01 13:46:43;;;;;;;30.73;17.10;;;;;;;6.27;75.16;99629.13;5049331;28;20040;-62
2021/11/01 13:49:09;;;;;;;31.85;17.63;;;;;;;6.23;75.29;99629.72;5046853;28;20053;-60
2021/11/01 13:51:34;;;;;;;35.85;18.38;;;;;;;6.19;75.63;99625.88;5044656;28;20029;-63
2021/11/01 13:56:38;;;;;;;30.55;18.15;;;;;;;6.16;76.05;99628.91;5048575;28;20561;-63
2021/11/01 14:02:19;;;;;;;30.45;18.27;;;;;;;6.09;76.01;99632.34;5044515;28;20073;-62
2021/11/01 14:16:17;;;;;;;37.33;19.27;;;;;;;5.89;77.70;99629.66;5047071;28;20489;-62
2021/11/01 16:18:06;;;;;;;121.97;30.92;;;;;;;4.91;82.65;99633.59;5049228;28;20041;-62
2021/11/01 16:20:32;;;;;;;104.25;28.70;;;;;;;4.91;81.06;99629.16;5048145;28;20143;-63
2021/11/01 16:23:26;;;;;;;97.97;29.67;;;;;;;4.90;81.80;99630.16;5048099;28;20487;-63
2021/11/01 16:26:29;;;;;;;98.13;27.50;;;;;;;4.93;81.56;99637.66;5023694;28;20044;-64
2021/11/01 16:29:06;;;;;;;97.70;29.30;;;;;;;4.99;81.98;99630.81;5050136;28;20128;-65
2021/11/01 16:31:58;;;;;;;110.95;32.30;;;;;;;5.07;81.84;99635.09;5048975;28;20040;-63
2021/11/01 16:34:32;;;;;;;109.28;33.05;;;;;;;5.10;80.93;99629.44;5021285;28;20139;-65
2021/11/01 16:39:26;;;;;;;88.60;29.40;;;;;;;5.24;80.74;99636.38;5032053;28;20310;-65
2021/11/01 16:41:53;;;;;;;99.22;28.23;;;;;;;5.24;80.71;99629.31;5045801;28;20058;-64
2021/11/01 16:44:31;;;;;;;89.72;29.27;;;;;;;5.32;80.62;99635.38;5052674;28;20045;-62
2021/11/01 16:46:57;;;;;;;91.60;29.23;;;;;;;5.36;80.47;99637.44;5051752;28;20068;-63
2021/11/01 16:49:24;;;;;;;100.05;29.95;;;;;;;5.39;80.74;99637.03;5050782;28;20041;-62
2021/11/01 16:51:51;;;;;;;104.53;30.30;;;;;;;5.42;80.58;99641.09;5050756;28;20329;-63
2021/11/01 16:54:30;;;;;;;93.78;29.00;;;;;;;5.35;80.13;99630.53;5013947;28;20052;-67
2021/11/01 16:57:04;;;;;;;101.82;32.58;;;;;;;5.38;80.77;99630.19;5003090;28;20048;-65
2021/11/01 17:02:18;;;;;;;82.00;30.25;;;;;;;5.45;80.69;99632.81;5051108;28;20036;-65
2021/11/01 17:04:49;;;;;;;110.25;29.80;;;;;;;5.51;80.45;99634.66;5050663;28;20045;-64
2021/11/01 17:07:32;;;;;;;108.53;29.85;;;;;;;5.56;80.20;99639.31;5051604;28;20573;-65
2021/11/01 17:26:29;;;;;;;103.80;33.25;;;;;;;5.63;79.60;99629.63;5048269;28;20033;-64
2021/11/01 17:34:56;;;;;;;108.13;32.35;;;;;;;5.60;79.84;99627.41;5049121;28;20037;-66
2021/11/01 18:40:23;;;;;;;94.28;30.73;;;;;;;5.65;78.88;99633.69;5050731;28;20049;-66
2021/11/01 18:45:45;;;;;;;85.63;29.35;;;;;;;5.65;79.24;99636.31;5050846;28;20045;-65
2021/11/01 18:51:05;;;;;;;96.60;30.52;;;;;;;5.68;78.90;99643.00;5034726;28;20629;-64
2021/11/01 18:53:39;;;;;;;91.72;29.92;;;;;;;5.68;79.18;99640.38;5050109;28;20055;-66
2021/11/01 18:56:07;;;;;;;75.40;29.70;;;;;;;5.69;79.76;99637.53;5049658;28;20124;-64
2021/11/01 18:58:35;;;;;;;93.35;29.67;;;;;;;5.71;78.51;99639.97;5049195;28;20045;-65
2021/11/01 19:01:02;;;;;;;80.53;31.70;;;;;;;5.74;79.06;99644.03;5050329;28;20524;-64
2021/11/01 19:03:33;;;;;;;79.70;29.40;;;;;;;5.77;78.46;99647.06;5050231;28;20051;-65
2021/11/01 20:04:50;;;;;;;123.57;32.85;;;;;;;5.54;78.46;99665.00;5033411;28;20128;-65
2021/11/01 21:27:21;;;;;;;100.43;29.85;;;;;;;5.81;78.13;99686.94;5051169;28;20041;-60
2021/11/01 21:29:48;;;;;;;126.35;31.25;;;;;;;5.79;77.97;99683.66;5050856;28;20048;-62
2021/11/01 21:32:14;;;;;;;104.53;29.35;;;;;;;5.79;77.78;99684.47;5051922;28;20041;-62
2021/11/01 21:34:54;;;;;;;112.05;29.20;;;;;;;5.75;77.90;99680.63;5033823;28;20049;-62
2021/11/01 21:37:20;;;;;;;73.10;27.57;;;;;;;5.73;78.21;99681.84;5050068;28;20055;-62
2021/11/01 21:39:46;;;;;;;96.53;29.35;;;;;;;5.72;78.17;99678.41;5050532;28;20418;-61
2021/11/01 21:42:12;;;;;;;66.78;28.10;;;;;;;5.73;78.75;99679.22;5050599;28;20040;-63
2021/11/01 21:44:39;;;;;;;72.18;27.33;;;;;;;5.72;78.01;99677.59;5051929;28;20049;-61
2021/11/01 21:47:07;;;;;;;65.93;26.65;;;;;;;5.64;78.04;99662.78;5051537;28;20492;-61
2021/11/01 21:49:33;;;;;;;114.35;29.27;;;;;;;5.66;77.91;99674.75;5051587;28;20131;-63
2021/11/01 21:51:59;;;;;;;101.35;28.10;;;;;;;5.66;77.66;99672.13;5050350;28;20132;-63
2021/11/01 21:54:31;;;;;;;101.50;28.75;;;;;;;5.57;77.38;99665.41;5051304;28;20094;-63
2021/11/01 21:57:08;;;;;;;91.28;28.33;;;;;;;5.58;78.07;99672.28;5051528;28;20044;-62
2021/11/01 22:21:16;;;;;;;84.18;26.45;;;;;;;5.36;77.99;99661.09;5050330;28;20102;-61
2021/11/01 22:34:48;;;;;;;86.53;24.17;;;;;;;5.23;78.41;99655.78;5050315;28;20098;-63
2021/11/01 22:42:56;;;;;;;75.15;25.50;;;;;;;5.11;77.79;99658.16;5039688;28;20103;-62
2021/11/01 22:45:29;;;;;;;152.00;28.67;;;;;;;5.05;78.43;99664.19;5050758;28;20052;-62
2021/11/01 22:58:42;;;;;;;126.63;27.73;;;;;;;5.19;78.65;99663.25;5054497;28;20131;-63
2021/11/01 23:01:19;;;;;;;78.80;25.50;;;;;;;5.24;78.66;99658.22;5054738;28;20175;-63
2021/11/01 23:06:55;;;;;;;83.80;27.05;;;;;;;5.18;78.73;99659.00;5053415;28;20060;-63
2021/11/01 23:33:50;;;;;;;163.18;32.95;;;;;;;5.17;79.28;99656.56;5053927;28;20407;-66
2021/11/01 23:36:16;;;;;;;105.25;28.20;;;;;;;5.15;79.56;99650.72;5052751;28;20047;-62
2021/11/01 23:38:42;;;;;;;84.78;27.40;;;;;;;5.16;79.28;99660.19;5054206;28;20122;-62
2021/11/01 23:41:09;;;;;;;311.23;38.63;;;;;;;5.09;76.78;99660.19;5053815;28;20052;-62
2021/11/01 23:43:35;;;;;;;170.10;30.35;;;;;;;5.04;79.09;99659.94;5053477;28;20045;-63
2021/11/01 23:46:01;;;;;;;114.90;28.75;;;;;;;5.04;79.37;99653.88;5054067;28;20053;-62
2021/11/01 23:48:27;;;;;;;179.02;32.03;;;;;;;4.99;79.23;99652.63;5053895;28;20406;-62
2021/11/01 23:50:54;;;;;;;148.10;29.63;;;;;;;4.97;80.24;99646.78;5053836;28;20049;-62
2021/11/01 23:53:36;;;;;;;251.15;36.67;;;;;;;4.97;79.20;99657.28;5036236;28;20226;-61
2021/11/01 23:56:03;;;;;;;197.45;32.38;;;;;;;4.95;79.37;99656.66;5053994;28;20051;-62
2021/11/01 23:58:29;;;;;;;236.77;33.88;;;;;;;4.89;78.26;99652.19;5053848;28;20048;-61
